Time;durP1;ratioP1;P1;durP2;ratioP2;P2;SDS_P1;SDS_P2;PMS_P1;PMS_P2;Temp;Humidity;BMP_temperature;BMP_pressure;BME280_temperature;BME280_humidity;BME280_pressure;Samples;Min_cycle;Max_cycle;Signal;HPM_P1;HPM_P2
2024/02/13 00:01:51;;;;;;;28.13;12.23;;;;;;;;;;5120968;28;20036;-58
2024/02/13 00:04:20;;;;;;;36.60;12.35;;;;;;;;;;5117575;28;20257;-56
2024/02/13 00:06:46;;;;;;;31.77;12.30;;;;;;;;;;5118310;28;20122;-57
2024/02/13 00:09:13;;;;;;;32.38;13.73;;;;;;;;;;5116747;28;20027;-57
2024/02/13 00:11:39;;;;;;;30.67;13.80;;;;;;;;;;5123347;28;20092;-57
2024/02/13 00:14:07;;;;;;;31.55;12.95;;;;;;;;;;5118818;28;20043;-58
2024/02/13 00:16:35;;;;;;;33.10;14.27;;;;;;;;;;5126563;28;20039;-55
2024/02/13 00:19:01;;;;;;;33.33;13.57;;;;;;;;;;5120027;28;20040;-58
2024/02/13 00:21:27;;;;;;;33.58;12.98;;;;;;;;;;5108732;28;20084;-58
2024/02/13 00:23:53;;;;;;;32.95;14.32;;;;;;;;;;5116135;28;20032;-60
2024/02/13 00:26:18;;;;;;;25.60;13.90;;;;;;;;;;5124334;28;20039;-58
2024/02/13 00:28:45;;;;;;;33.30;13.53;;;;;;;;;;5120961;28;20319;-58
2024/02/13 00:31:10;;;;;;;31.52;14.13;;;;;;;;;;5123148;28;20055;-58
2024/02/13 00:33:36;;;;;;;25.98;12.75;;;;;;;;;;5129290;28;20028;-58
2024/02/13 00:36:02;;;;;;;35.07;15.57;;;;;;;;;;5120165;28;20020;-59
2024/02/13 00:38:29;;;;;;;29.40;14.38;;;;;;;;;;5121091;28;20053;-58
2024/02/13 00:40:55;;;;;;;33.53;15.07;;;;;;;;;;5121497;28;20036;-58
2024/02/13 00:43:22;;;;;;;33.00;15.50;;;;;;;;;;5120670;28;20121;-58
2024/02/13 00:45:49;;;;;;;31.73;16.10;;;;;;;;;;5116855;28;20028;-59
2024/02/13 00:48:17;;;;;;;32.17;15.20;;;;;;;;;;5133253;28;20040;-58
2024/02/13 00:50:44;;;;;;;29.13;14.73;;;;;;;;;;5117172;28;20032;-59
2024/02/13 00:53:10;;;;;;;;;;;;;;;;;;5121132;28;20040;-59
2024/02/13 00:55:36;;;;;;;36.15;16.27;;;;;;;;;;5116955;28;19908;-58
2024/02/13 00:58:02;;;;;;;36.65;16.92;;;;;;;;;;5117065;28;20035;-59
2024/02/13 01:00:28;;;;;;;27.73;13.27;;;;;;;;;;5117208;28;20024;-59
2024/02/13 01:02:55;;;;;;;39.58;18.00;;;;;;;;;;5123119;28;20050;-59
2024/02/13 01:05:22;;;;;;;28.52;16.20;;;;;;;;;;5125519;28;20036;-57
2024/02/13 01:07:47;;;;;;;32.35;17.17;;;;;;;;;;5126757;28;20023;-58
2024/02/13 01:10:15;;;;;;;36.83;17.53;;;;;;;;;;5117045;28;20032;-59
2024/02/13 01:12:41;;;;;;;39.10;17.50;;;;;;;;;;5120803;28;20272;-57
2024/02/13 01:15:07;;;;;;;32.58;17.58;;;;;;;;;;5124849;28;20062;-58
2024/02/13 01:17:33;;;;;;;36.33;16.48;;;;;;;;;;5122813;28;20032;-58
2024/02/13 01:19:58;;;;;;;39.50;19.08;;;;;;;;;;5104733;28;20043;-52
2024/02/13 01:22:24;;;;;;;31.23;17.83;;;;;;;;;;5115435;28;20020;-56
2024/02/13 01:24:50;;;;;;;39.97;18.17;;;;;;;;;;5121409;28;20068;-58
2024/02/13 01:27:18;;;;;;;35.25;18.05;;;;;;;;;;5120210;28;20028;-55
2024/02/13 01:29:44;;;;;;;42.63;18.27;;;;;;;;;;5116395;28;20061;-58
2024/02/13 01:32:09;;;;;;;38.90;19.67;;;;;;;;;;5117971;28;20031;-57
2024/02/13 01:34:35;;;;;;;29.33;14.98;;;;;;;;;;5116379;28;20423;-58
2024/02/13 01:37:00;;;;;;;38.27;18.33;;;;;;;;;;5118005;28;20100;-58
2024/02/13 01:39:26;;;;;;;34.42;18.92;;;;;;;;;;5116554;28;20036;-53
2024/02/13 01:41:52;;;;;;;36.40;19.07;;;;;;;;;;5116199;28;20052;-57
2024/02/13 01:44:18;;;;;;;39.08;17.73;;;;;;;;;;5132265;28;20031;-57
2024/02/13 01:46:44;;;;;;;43.63;18.38;;;;;;;;;;5120341;28;20043;-57
2024/02/13 01:49:09;;;;;;;41.92;19.48;;;;;;;;;;5125461;28;20058;-58
2024/02/13 01:51:35;;;;;;;36.05;18.95;;;;;;;;;;5115907;28;20048;-59
2024/02/13 01:54:03;;;;;;;35.70;20.00;;;;;;;;;;5116073;28;20028;-59
2024/02/13 01:56:30;;;;;;;30.20;16.67;;;;;;;;;;5115763;28;20024;-58
2024/02/13 01:58:59;;;;;;;35.17;19.42;;;;;;;;;;5124301;28;20032;-58
2024/02/13 02:01:31;;;;;;;42.42;19.33;;;;;;;;;;5114952;28;20023;-58
2024/02/13 02:03:58;;;;;;;39.85;18.48;;;;;;;;;;5119456;28;20036;-57
2024/02/13 02:06:24;;;;;;;37.28;18.90;;;;;;;;;;5115016;28;20028;-58
2024/02/13 02:08:49;;;;;;;32.40;18.43;;;;;;;;;;5121522;28;20052;-58
2024/02/13 02:11:15;;;;;;;30.63;19.07;;;;;;;;;;5114615;28;20282;-57
2024/02/13 02:13:42;;;;;;;40.77;19.17;;;;;;;;;;5115832;28;20028;-58
2024/02/13 02:16:07;;;;;;;39.97;18.75;;;;;;;;;;5114822;28;20272;-56
2024/02/13 02:18:33;;;;;;;44.03;18.92;;;;;;;;;;5118980;28;20035;-58
2024/02/13 02:20:58;;;;;;;36.30;21.20;;;;;;;;;;5115375;28;20049;-57
2024/02/13 02:23:23;;;;;;;35.80;20.37;;;;;;;;;;5121001;28;20062;-58
2024/02/13 02:25:50;;;;;;;32.95;18.52;;;;;;;;;;5114870;28;20028;-57
2024/02/13 02:28:16;;;;;;;46.80;20.92;;;;;;;;;;5115997;28;20065;-55
2024/02/13 02:30:42;;;;;;;41.87;19.27;;;;;;;;;;5115036;28;20100;-55
2024/02/13 02:33:08;;;;;;;35.85;19.92;;;;;;;;;;5115305;28;20300;-57
2024/02/13 02:35:34;;;;;;;35.77;19.23;;;;;;;;;;5114418;28;20047;-58
2024/02/13 02:38:00;;;;;;;33.88;18.92;;;;;;;;;;5127493;28;20042;-52
2024/02/13 02:40:26;;;;;;;35.47;18.13;;;;;;;;;;5115259;28;20036;-52
2024/02/13 02:42:59;;;;;;;32.45;19.30;;;;;;;;;;5115278;28;20046;-53
2024/02/13 02:45:27;;;;;;;29.63;18.67;;;;;;;;;;5113240;28;20051;-54
2024/02/13 02:47:53;;;;;;;42.08;20.58;;;;;;;;;;5122668;28;20035;-51
2024/02/13 02:50:18;;;;;;;41.00;20.40;;;;;;;;;;5117296;28;20024;-57
2024/02/13 02:52:44;;;;;;;34.57;19.30;;;;;;;;;;5119412;28;20268;-56
2024/02/13 02:55:10;;;;;;;36.25;18.65;;;;;;;;;;5112781;28;20510;-57
2024/02/13 02:57:35;;;;;;;37.80;19.50;;;;;;;;;;5119282;28;20032;-59
2024/02/13 03:00:03;;;;;;;42.73;20.13;;;;;;;;;;5107683;28;20029;-59
2024/02/13 03:02:29;;;;;;;39.17;20.00;;;;;;;;;;5110117;28;20264;-58
2024/02/13 03:04:55;;;;;;;38.33;20.30;;;;;;;;;;5115260;28;20028;-55
2024/02/13 03:07:21;;;;;;;38.60;19.50;;;;;;;;;;5117847;28;20083;-57
2024/02/13 03:09:48;;;;;;;33.90;19.27;;;;;;;;;;5114987;28;20249;-56
2024/02/13 03:12:13;;;;;;;43.13;20.25;;;;;;;;;;5113732;28;20050;-57
2024/02/13 03:14:39;;;;;;;33.17;18.92;;;;;;;;;;5109161;28;20032;-56
2024/02/13 03:17:06;;;;;;;36.57;20.80;;;;;;;;;;5115018;28;20098;-56
2024/02/13 03:19:32;;;;;;;36.55;20.17;;;;;;;;;;5114611;28;20024;-56
2024/02/13 03:21:58;;;;;;;36.53;20.13;;;;;;;;;;5114397;28;20043;-56
2024/02/13 03:24:25;;;;;;;35.85;19.90;;;;;;;;;;5115056;28;20035;-54
2024/02/13 03:26:50;;;;;;;35.43;19.23;;;;;;;;;;5114211;28;20043;-52
2024/02/13 03:29:15;;;;;;;36.87;19.20;;;;;;;;;;5127053;28;20028;-56
2024/02/13 03:31:41;;;;;;;44.92;20.15;;;;;;;;;;5114413;28;20039;-58
2024/02/13 03:34:07;;;;;;;39.43;18.97;;;;;;;;;;5115099;28;20043;-58
2024/02/13 03:36:33;;;;;;;;;;;;;;;;;;5114590;28;20170;-58
2024/02/13 03:38:59;;;;;;;37.07;20.10;;;;;;;;;;5125350;28;19908;-57
2024/02/13 03:41:25;;;;;;;37.67;20.10;;;;;;;;;;5117834;28;20047;-58
2024/02/13 03:43:50;;;;;;;41.50;20.87;;;;;;;;;;5118738;28;20083;-56
2024/02/13 03:46:16;;;;;;;37.37;19.03;;;;;;;;;;5118273;28;20302;-56
2024/02/13 03:48:41;;;;;;;40.50;20.10;;;;;;;;;;5119776;28;20032;-57
2024/02/13 03:51:07;;;;;;;41.13;20.40;;;;;;;;;;5118051;28;20265;-57
2024/02/13 03:53:35;;;;;;;36.90;20.38;;;;;;;;;;5121195;28;20057;-59
2024/02/13 03:56:02;;;;;;;36.80;19.42;;;;;;;;;;5131452;28;20031;-59
2024/02/13 03:58:28;;;;;;;36.35;19.25;;;;;;;;;;5121659;28;20035;-57
2024/02/13 04:00:54;;;;;;;;;;;;;;;;;;5117717;28;20043;-59
2024/02/13 04:03:20;;;;;;;40.17;21.07;;;;;;;;;;5118329;28;19975;-59
2024/02/13 04:05:45;;;;;;;44.25;20.13;;;;;;;;;;5122109;28;20031;-58
2024/02/13 04:08:11;;;;;;;36.53;18.63;;;;;;;;;;5121806;28;20063;-58
2024/02/13 04:10:37;;;;;;;43.45;20.58;;;;;;;;;;5117997;28;20028;-58
2024/02/13 04:13:06;;;;;;;32.10;18.27;;;;;;;;;;5117553;28;20069;-60
2024/02/13 04:15:37;;;;;;;35.88;18.92;;;;;;;;;;5121772;28;20020;-57
2024/02/13 04:18:03;;;;;;;35.78;19.33;;;;;;;;;;5121824;28;20049;-58
2024/02/13 04:20:29;;;;;;;34.97;19.40;;;;;;;;;;5120877;28;20024;-59
2024/02/13 04:22:55;;;;;;;36.03;18.25;;;;;;;;;;5117807;28;20020;-56
2024/02/13 04:25:21;;;;;;;34.60;20.47;;;;;;;;;;5126890;28;20047;-58
2024/02/13 04:27:47;;;;;;;44.97;22.00;;;;;;;;;;5123142;28;20028;-58
2024/02/13 04:30:13;;;;;;;42.25;19.70;;;;;;;;;;5104053;28;20036;-57
2024/02/13 04:32:39;;;;;;;33.73;20.13;;;;;;;;;;5117589;28;20054;-57
2024/02/13 04:35:05;;;;;;;35.83;21.33;;;;;;;;;;5123780;28;20280;-57
2024/02/13 04:37:31;;;;;;;38.78;20.95;;;;;;;;;;5123870;28;20024;-58
2024/02/13 04:39:57;;;;;;;43.50;20.20;;;;;;;;;;5121534;28;20055;-57
2024/02/13 04:42:32;;;;;;;36.20;19.73;;;;;;;;;;5117276;28;20032;-58
2024/02/13 04:44:59;;;;;;;39.83;19.38;;;;;;;;;;5117479;28;20333;-59
2024/02/13 04:47:25;;;;;;;42.13;19.27;;;;;;;;;;5125859;28;20055;-57
2024/02/13 04:49:51;;;;;;;39.60;19.25;;;;;;;;;;5119967;28;20032;-58
2024/02/13 04:52:17;;;;;;;38.13;18.40;;;;;;;;;;5115992;28;20036;-58
2024/02/13 04:54:42;;;;;;;34.90;17.53;;;;;;;;;;5116668;28;20304;-56
2024/02/13 04:57:08;;;;;;;29.63;17.85;;;;;;;;;;5120178;28;20023;-58
2024/02/13 04:59:47;;;;;;;33.47;17.97;;;;;;;;;;5119729;28;20048;-58
2024/02/13 05:02:13;;;;;;;44.45;18.42;;;;;;;;;;5117135;28;20257;-58
2024/02/13 05:07:23;;;;;;;36.65;16.60;;;;;;;;;;5119848;28;20026;-58
2024/02/13 05:09:48;;;;;;;34.20;15.77;;;;;;;;;;5122539;28;20059;-58
2024/02/13 05:12:14;;;;;;;36.67;16.20;;;;;;;;;;5117036;28;20260;-57
2024/02/13 05:14:41;;;;;;;35.10;17.73;;;;;;;;;;5123120;28;20031;-57
2024/02/13 05:17:07;;;;;;;35.10;17.23;;;;;;;;;;5124232;28;20032;-57
2024/02/13 05:19:32;;;;;;;29.73;16.57;;;;;;;;;;5128559;28;20063;-58
2024/02/13 05:21:58;;;;;;;38.63;18.08;;;;;;;;;;5116567;28;20028;-59
2024/02/13 05:24:26;;;;;;;39.53;17.08;;;;;;;;;;5120916;28;20028;-59
2024/02/13 05:26:53;;;;;;;34.83;17.50;;;;;;;;;;5124819;28;20023;-57
2024/02/13 05:29:18;;;;;;;33.35;15.80;;;;;;;;;;5126489;28;20038;-58
2024/02/13 05:31:45;;;;;;;34.83;16.55;;;;;;;;;;5113633;28;20024;-54
2024/02/13 05:34:10;;;;;;;34.08;16.17;;;;;;;;;;5105485;28;20040;-58
2024/02/13 05:36:35;;;;;;;32.37;16.13;;;;;;;;;;5120868;28;20028;-59
2024/02/13 05:39:02;;;;;;;41.30;17.53;;;;;;;;;;5127164;28;20028;-57
2024/02/13 05:41:28;;;;;;;31.25;16.00;;;;;;;;;;5120652;28;20022;-58
2024/02/13 05:43:53;;;;;;;40.08;17.08;;;;;;;;;;5116296;28;20059;-56
2024/02/13 05:46:19;;;;;;;34.30;16.77;;;;;;;;;;5116530;28;20024;-57
2024/02/13 05:48:45;;;;;;;42.10;17.23;;;;;;;;;;5105494;28;20050;-57
2024/02/13 05:51:11;;;;;;;35.60;16.60;;;;;;;;;;5115700;28;20028;-56
2024/02/13 05:53:37;;;;;;;34.50;16.80;;;;;;;;;;5111683;28;20032;-57
2024/02/13 05:56:03;;;;;;;34.03;16.40;;;;;;;;;;5115720;28;20034;-55
2024/02/13 05:58:29;;;;;;;34.72;17.25;;;;;;;;;;5122849;28;20040;-58
2024/02/13 06:00:54;;;;;;;29.80;15.40;;;;;;;;;;5111943;28;20024;-56
2024/02/13 06:03:20;;;;;;;31.70;15.77;;;;;;;;;;5114600;28;20032;-58
2024/02/13 06:05:45;;;;;;;39.93;17.00;;;;;;;;;;5116034;28;20036;-59
2024/02/13 06:08:11;;;;;;;43.20;15.70;;;;;;;;;;5128906;28;20028;-59
2024/02/13 06:10:38;;;;;;;29.13;14.48;;;;;;;;;;5115188;28;20051;-58
2024/02/13 06:13:03;;;;;;;39.95;15.82;;;;;;;;;;5115614;28;20036;-56
2024/02/13 06:15:29;;;;;;;37.28;14.40;;;;;;;;;;5109156;28;20131;-57
2024/02/13 06:17:54;;;;;;;36.23;16.20;;;;;;;;;;5130192;28;20046;-56
2024/02/13 06:20:21;;;;;;;38.42;15.60;;;;;;;;;;5123610;28;20036;-59
2024/02/13 06:22:46;;;;;;;28.42;15.38;;;;;;;;;;5115441;28;20024;-57
2024/02/13 06:25:12;;;;;;;31.17;14.73;;;;;;;;;;5118825;28;20028;-58
2024/02/13 06:27:38;;;;;;;32.35;15.50;;;;;;;;;;5115273;28;20263;-59
2024/02/13 06:30:04;;;;;;;32.33;14.37;;;;;;;;;;5125072;28;20094;-57
2024/02/13 06:32:30;;;;;;;31.50;13.68;;;;;;;;;;5115243;28;20057;-57
2024/02/13 06:34:56;;;;;;;25.13;13.52;;;;;;;;;;5115069;28;20036;-59
2024/02/13 06:37:21;;;;;;;27.67;14.37;;;;;;;;;;5105926;28;20024;-59
2024/02/13 06:39:47;;;;;;;35.15;14.90;;;;;;;;;;5116952;28;20032;-59
2024/02/13 06:42:13;;;;;;;35.75;15.65;;;;;;;;;;5114367;28;20028;-59
2024/02/13 06:44:39;;;;;;;31.80;13.93;;;;;;;;;;5115818;28;20038;-53
2024/02/13 06:47:06;;;;;;;32.53;14.15;;;;;;;;;;5108180;28;20028;-56
2024/02/13 06:49:33;;;;;;;31.73;13.48;;;;;;;;;;5118651;28;20069;-58
2024/02/13 06:51:58;;;;;;;31.25;15.13;;;;;;;;;;5115723;28;20039;-58
2024/02/13 06:54:24;;;;;;;22.70;12.25;;;;;;;;;;5114677;28;20066;-58
2024/02/13 06:56:50;;;;;;;36.78;14.75;;;;;;;;;;5114155;28;20058;-55
2024/02/13 06:59:17;;;;;;;30.23;14.55;;;;;;;;;;5117427;28;20032;-58
2024/02/13 07:01:43;;;;;;;33.55;13.75;;;;;;;;;;5107623;28;20050;-58
2024/02/13 07:04:10;;;;;;;28.47;12.37;;;;;;;;;;5108809;28;20032;-59
2024/02/13 07:06:36;;;;;;;32.30;13.38;;;;;;;;;;5114542;28;20308;-57
2024/02/13 07:09:02;;;;;;;30.13;15.45;;;;;;;;;;5115387;28;20040;-57
2024/02/13 07:11:27;;;;;;;38.35;14.85;;;;;;;;;;5114331;28;20039;-56
2024/02/13 07:13:53;;;;;;;31.43;14.03;;;;;;;;;;5115742;28;20036;-57
2024/02/13 07:16:18;;;;;;;32.23;13.57;;;;;;;;;;5121162;28;20269;-57
2024/02/13 07:18:45;;;;;;;26.67;12.48;;;;;;;;;;5121539;28;20058;-58
2024/02/13 07:21:10;;;;;;;24.73;12.27;;;;;;;;;;5120879;28;20032;-58
2024/02/13 07:23:37;;;;;;;35.20;12.93;;;;;;;;;;5120999;28;20047;-57
2024/02/13 07:26:02;;;;;;;27.63;10.33;;;;;;;;;;5120454;28;20036;-54
2024/02/13 07:28:28;;;;;;;28.13;10.48;;;;;;;;;;5120788;28;20032;-58
2024/02/13 07:30:53;;;;;;;23.37;10.97;;;;;;;;;;5114113;27;20059;-58
2024/02/13 07:33:19;;;;;;;26.05;9.65;;;;;;;;;;5120552;28;20032;-58
2024/02/13 07:35:45;;;;;;;23.73;8.90;;;;;;;;;;5115338;28;20063;-59
2024/02/13 07:38:10;;;;;;;21.95;9.32;;;;;;;;;;5115406;28;20032;-58
2024/02/13 07:40:36;;;;;;;22.30;8.77;;;;;;;;;;5129921;28;20033;-57
2024/02/13 07:43:01;;;;;;;24.73;7.80;;;;;;;;;;5116661;28;20033;-59
2024/02/13 07:45:27;;;;;;;20.23;8.07;;;;;;;;;;5109488;28;20481;-58
2024/02/13 07:47:53;;;;;;;28.30;9.63;;;;;;;;;;5120372;28;20039;-59
2024/02/13 07:50:19;;;;;;;;;;;;;;;;;;5119685;28;20084;-58
2024/02/13 07:52:45;;;;;;;25.95;9.05;;;;;;;;;;5117707;28;19912;-56
2024/02/13 07:55:11;;;;;;;17.17;7.13;;;;;;;;;;5114850;28;20036;-58
2024/02/13 07:57:37;;;;;;;15.95;8.02;;;;;;;;;;5119112;28;20028;-60
2024/02/13 08:00:03;;;;;;;15.20;6.73;;;;;;;;;;5127609;28;20032;-58
2024/02/13 08:02:31;;;;;;;14.35;6.18;;;;;;;;;;5115278;28;20040;-58
2024/02/13 08:04:56;;;;;;;18.83;6.10;;;;;;;;;;5121083;28;20031;-59
2024/02/13 08:07:27;;;;;;;19.37;5.53;;;;;;;;;;5114876;28;20035;-59
2024/02/13 08:09:53;;;;;;;15.68;7.05;;;;;;;;;;5128514;28;20028;-59
2024/02/13 08:12:19;;;;;;;15.80;6.50;;;;;;;;;;5122627;28;20047;-58
2024/02/13 08:14:44;;;;;;;14.10;6.00;;;;;;;;;;5120991;28;20020;-59
2024/02/13 08:17:10;;;;;;;17.83;7.33;;;;;;;;;;5120259;28;20088;-54
2024/02/13 08:19:40;;;;;;;;;;;;;;;;;;5128448;28;20119;-59
2024/02/13 08:22:05;;;;;;;16.17;6.75;;;;;;;;;;5126483;27;19998;-58
2024/02/13 08:24:31;;;;;;;18.52;6.60;;;;;;;;;;5120744;28;20036;-57
2024/02/13 08:26:58;;;;;;;13.90;5.72;;;;;;;;;;5115627;28;20032;-58
2024/02/13 08:29:24;;;;;;;19.02;7.00;;;;;;;;;;5128337;28;20083;-59
2024/02/13 08:31:50;;;;;;;10.82;5.38;;;;;;;;;;5110395;28;20023;-57
2024/02/13 08:34:17;;;;;;;15.20;5.45;;;;;;;;;;5117191;28;20085;-56
2024/02/13 08:36:43;;;;;;;14.77;5.50;;;;;;;;;;5104168;28;20033;-58
2024/02/13 08:39:10;;;;;;;14.05;4.82;;;;;;;;;;5118564;28;20110;-58
2024/02/13 08:41:35;;;;;;;11.02;4.85;;;;;;;;;;5116315;28;20039;-59
2024/02/13 08:44:00;;;;;;;8.93;4.50;;;;;;;;;;5114133;28;20040;-57
2024/02/13 08:46:26;;;;;;;19.07;4.73;;;;;;;;;;5106663;28;20123;-59
2024/02/13 08:48:51;;;;;;;10.43;4.20;;;;;;;;;;5108096;28;20089;-59
2024/02/13 08:51:18;;;;;;;12.77;4.63;;;;;;;;;;5110680;28;20044;-58
2024/02/13 08:53:44;;;;;;;;;;;;;;;;;;5116915;28;20039;-58
2024/02/13 08:56:10;;;;;;;12.90;4.33;;;;;;;;;;5123602;28;19907;-58
2024/02/13 08:58:36;;;;;;;6.68;3.15;;;;;;;;;;5116890;28;20104;-58
2024/02/13 09:01:01;;;;;;;15.43;5.13;;;;;;;;;;5109702;28;20107;-57
2024/02/13 09:03:27;;;;;;;10.48;4.22;;;;;;;;;;5109651;28;20041;-56
2024/02/13 09:05:56;;;;;;;14.55;3.85;;;;;;;;;;5115292;28;20039;-56
2024/02/13 09:08:21;;;;;;;7.23;3.00;;;;;;;;;;5114543;28;20113;-56
2024/02/13 09:10:47;;;;;;;12.57;3.72;;;;;;;;;;5108782;28;20309;-57
2024/02/13 09:13:15;;;;;;;12.40;3.97;;;;;;;;;;5114027;28;20032;-57
2024/02/13 09:15:41;;;;;;;7.83;3.77;;;;;;;;;;5116243;28;20024;-56
2024/02/13 09:18:06;;;;;;;12.13;4.53;;;;;;;;;;5102325;28;20284;-58
2024/02/13 09:20:32;;;;;;;14.63;4.60;;;;;;;;;;5120267;28;20249;-56
2024/02/13 09:22:59;;;;;;;9.95;3.50;;;;;;;;;;5112882;28;20028;-54
2024/02/13 09:25:24;;;;;;;10.00;3.43;;;;;;;;;;5116487;28;20032;-57
2024/02/13 09:27:51;;;;;;;9.30;4.20;;;;;;;;;;5127186;28;20260;-58
2024/02/13 09:30:17;;;;;;;11.07;3.60;;;;;;;;;;5118221;28;20043;-56
2024/02/13 09:32:43;;;;;;;16.30;4.27;;;;;;;;;;5115860;28;20260;-57
2024/02/13 09:35:09;;;;;;;9.80;4.00;;;;;;;;;;5115070;28;20286;-57
2024/02/13 09:37:39;;;;;;;7.45;2.53;;;;;;;;;;5115413;28;20031;-59
2024/02/13 09:40:06;;;;;;;7.83;3.07;;;;;;;;;;5118435;28;20054;-60
2024/02/13 09:42:32;;;;;;;9.33;3.50;;;;;;;;;;5108085;28;20321;-57
2024/02/13 09:44:58;;;;;;;10.45;3.50;;;;;;;;;;5118704;28;20320;-58
2024/02/13 09:47:26;;;;;;;10.35;3.67;;;;;;;;;;5115781;28;20032;-59
2024/02/13 09:49:51;;;;;;;9.97;3.50;;;;;;;;;;5122226;28;20023;-56
2024/02/13 09:52:17;;;;;;;10.90;3.23;;;;;;;;;;5114886;28;20276;-58
2024/02/13 09:54:44;;;;;;;12.93;3.33;;;;;;;;;;5104245;28;20316;-58
2024/02/13 09:57:10;;;;;;;13.57;3.80;;;;;;;;;;5113094;28;20256;-57
2024/02/13 09:59:37;;;;;;;7.05;2.70;;;;;;;;;;5117218;28;20058;-58
2024/02/13 10:02:05;;;;;;;7.72;3.08;;;;;;;;;;5124779;28;20020;-60
2024/02/13 10:04:31;;;;;;;8.67;2.50;;;;;;;;;;5110118;28;20048;-57
2024/02/13 10:06:57;;;;;;;6.47;2.87;;;;;;;;;;5111961;28;20345;-59
2024/02/13 10:09:24;;;;;;;8.03;3.43;;;;;;;;;;5101646;28;20120;-56
2024/02/13 10:11:51;;;;;;;13.00;3.35;;;;;;;;;;5108178;28;20260;-56
2024/02/13 10:14:19;;;;;;;12.23;4.47;;;;;;;;;;5103991;28;20083;-58
2024/02/13 10:16:45;;;;;;;13.03;3.40;;;;;;;;;;5107500;28;20280;-60
2024/02/13 10:19:13;;;;;;;9.20;3.83;;;;;;;;;;5113543;28;20269;-58
2024/02/13 10:21:41;;;;;;;7.60;3.17;;;;;;;;;;5108824;28;20032;-60
2024/02/13 10:24:15;;;;;;;9.30;3.00;;;;;;;;;;5107319;28;20275;-57
2024/02/13 10:26:41;;;;;;;16.50;3.70;;;;;;;;;;5113978;28;20278;-59
2024/02/13 10:29:07;;;;;;;6.00;3.15;;;;;;;;;;5113228;28;20039;-56
2024/02/13 10:31:35;;;;;;;7.60;2.92;;;;;;;;;;5107901;28;20098;-61
2024/02/13 10:34:04;;;;;;;9.70;2.77;;;;;;;;;;5120757;28;20031;-61
2024/02/13 10:36:31;;;;;;;8.13;2.70;;;;;;;;;;5118048;28;20015;-60
2024/02/13 10:39:00;;;;;;;9.47;2.87;;;;;;;;;;5108327;28;20075;-58
2024/02/13 10:41:27;;;;;;;11.43;2.90;;;;;;;;;;5122599;28;20043;-59
2024/02/13 10:43:53;;;;;;;8.43;2.70;;;;;;;;;;5117336;28;20103;-58
2024/02/13 10:46:25;;;;;;;11.30;3.17;;;;;;;;;;5114869;28;20051;-60
2024/02/13 10:48:56;;;;;;;5.57;2.60;;;;;;;;;;5114091;28;20028;-60
2024/02/13 10:51:22;;;;;;;7.30;3.23;;;;;;;;;;5119752;28;20055;-58
2024/02/13 10:53:48;;;;;;;5.90;2.40;;;;;;;;;;5113314;28;20054;-57
2024/02/13 10:56:14;;;;;;;9.57;2.75;;;;;;;;;;5107266;28;20037;-58
2024/02/13 10:58:41;;;;;;;13.77;2.90;;;;;;;;;;5117352;28;20024;-56
2024/02/13 11:01:07;;;;;;;6.50;2.70;;;;;;;;;;5116349;28;20044;-58
2024/02/13 11:03:33;;;;;;;7.40;2.50;;;;;;;;;;5110664;28;20065;-60
2024/02/13 11:05:59;;;;;;;6.28;2.72;;;;;;;;;;5110291;28;20036;-59
2024/02/13 11:08:25;;;;;;;10.70;3.10;;;;;;;;;;5113311;28;20047;-58
2024/02/13 11:10:52;;;;;;;5.13;2.90;;;;;;;;;;5120160;28;20092;-59
2024/02/13 11:13:18;;;;;;;7.50;2.70;;;;;;;;;;5106752;28;20031;-59
2024/02/13 11:15:44;;;;;;;9.13;3.45;;;;;;;;;;5117920;28;20028;-58
2024/02/13 11:18:12;;;;;;;9.95;3.63;;;;;;;;;;5114728;28;20031;-58
2024/02/13 11:20:39;;;;;;;9.07;3.00;;;;;;;;;;5117701;28;20039;-59
2024/02/13 11:23:11;;;;;;;10.47;3.37;;;;;;;;;;5114389;28;20028;-61
2024/02/13 11:25:39;;;;;;;11.60;3.00;;;;;;;;;;5114998;28;20020;-58
2024/02/13 11:28:08;;;;;;;7.43;2.70;;;;;;;;;;5116346;28;20028;-58
2024/02/13 11:30:37;;;;;;;11.10;2.90;;;;;;;;;;5115258;28;20028;-58
2024/02/13 11:33:05;;;;;;;11.73;3.03;;;;;;;;;;5113749;28;20032;-58
2024/02/13 11:35:32;;;;;;;8.47;2.20;;;;;;;;;;5118174;28;20028;-58
2024/02/13 11:38:08;;;;;;;7.30;2.87;;;;;;;;;;5114364;28;20091;-59
2024/02/13 11:40:38;;;;;;;8.38;3.25;;;;;;;;;;5107561;28;20069;-59
2024/02/13 11:43:04;;;;;;;6.77;2.30;;;;;;;;;;5119199;28;20058;-58
2024/02/13 11:45:31;;;;;;;8.18;2.60;;;;;;;;;;5114038;28;20024;-58
2024/02/13 11:47:59;;;;;;;11.07;2.97;;;;;;;;;;5114200;28;20028;-58
2024/02/13 11:50:25;;;;;;;12.73;3.70;;;;;;;;;;5111245;28;20036;-58
2024/02/13 11:52:51;;;;;;;6.90;2.30;;;;;;;;;;5113791;28;20062;-59
2024/02/13 11:55:19;;;;;;;;;;;;;;;;;;5114278;28;20032;-58
2024/02/13 11:57:44;;;;;;;4.90;2.10;;;;;;;;;;5112151;28;19911;-59
2024/02/13 12:00:18;;;;;;;6.40;2.28;;;;;;;;;;5116337;28;20028;-58
2024/02/13 12:02:46;;;;;;;6.03;2.20;;;;;;;;;;5120411;28;20036;-58
2024/02/13 12:05:11;;;;;;;8.40;2.17;;;;;;;;;;5117779;28;20038;-59
2024/02/13 12:07:37;;;;;;;9.93;2.73;;;;;;;;;;5107859;28;20024;-58
2024/02/13 12:10:06;;;;;;;8.52;2.13;;;;;;;;;;5118052;28;20056;-59
2024/02/13 12:12:32;;;;;;;12.80;2.77;;;;;;;;;;5124069;28;20031;-60
2024/02/13 12:14:58;;;;;;;7.05;2.15;;;;;;;;;;5118196;28;20032;-58
2024/02/13 12:17:23;;;;;;;9.18;2.10;;;;;;;;;;5118239;28;20031;-56
2024/02/13 12:19:50;;;;;;;7.47;2.00;;;;;;;;;;5117601;28;20020;-59
2024/02/13 12:22:16;;;;;;;4.13;1.63;;;;;;;;;;5108831;28;20032;-58
2024/02/13 12:24:46;;;;;;;9.23;2.13;;;;;;;;;;5102297;28;20052;-58
2024/02/13 12:27:12;;;;;;;6.80;1.97;;;;;;;;;;5117391;28;20028;-59
2024/02/13 12:29:44;;;;;;;11.65;2.08;;;;;;;;;;5117531;28;20036;-57
2024/02/13 12:32:20;;;;;;;6.07;2.50;;;;;;;;;;5131026;28;20093;-59
2024/02/13 12:34:47;;;;;;;10.52;2.88;;;;;;;;;;5124241;28;20032;-57
2024/02/13 12:37:20;;;;;;;8.90;2.77;;;;;;;;;;5114588;28;20036;-57
2024/02/13 12:39:49;;;;;;;13.13;2.70;;;;;;;;;;5122938;28;20047;-59
2024/02/13 12:42:17;;;;;;;7.87;2.30;;;;;;;;;;5124693;28;20028;-58
2024/02/13 12:44:43;;;;;;;7.67;2.40;;;;;;;;;;5116663;28;20256;-58
2024/02/13 12:47:12;;;;;;;7.67;2.47;;;;;;;;;;5116945;28;20261;-58
2024/02/13 12:49:38;;;;;;;6.63;1.87;;;;;;;;;;5116994;28;20259;-58
2024/02/13 12:52:05;;;;;;;8.38;2.38;;;;;;;;;;5122020;28;20272;-59
2024/02/13 12:54:32;;;;;;;7.43;2.57;;;;;;;;;;5121168;28;20032;-58
2024/02/13 12:56:58;;;;;;;5.07;2.23;;;;;;;;;;5119783;28;20260;-56
2024/02/13 12:59:25;;;;;;;4.60;2.40;;;;;;;;;;5120762;28;20277;-57
2024/02/13 13:01:53;;;;;;;7.93;2.30;;;;;;;;;;5118474;28;20023;-57
2024/02/13 13:04:21;;;;;;;8.90;2.43;;;;;;;;;;5116636;28;20269;-55
2024/02/13 13:06:47;;;;;;;10.40;2.93;;;;;;;;;;5116487;28;20271;-58
2024/02/13 13:09:19;;;;;;;6.85;2.08;;;;;;;;;;5116343;28;20257;-59
2024/02/13 13:11:45;;;;;;;3.63;1.70;;;;;;;;;;5126232;28;20186;-56
2024/02/13 13:14:12;;;;;;;8.82;2.58;;;;;;;;;;5118866;28;20331;-58
2024/02/13 13:16:37;;;;;;;9.38;2.33;;;;;;;;;;5116313;28;20028;-58
2024/02/13 13:19:03;;;;;;;12.32;2.22;;;;;;;;;;5116545;28;20032;-59
2024/02/13 13:21:33;;;;;;;6.03;1.83;;;;;;;;;;5124389;28;20027;-57
2024/02/13 13:23:58;;;;;;;9.77;1.67;;;;;;;;;;5117348;28;20052;-56
2024/02/13 13:26:32;;;;;;;8.37;2.10;;;;;;;;;;5106620;28;20291;-55
2024/02/13 13:29:04;;;;;;;8.13;2.20;;;;;;;;;;5125205;28;20031;-58
2024/02/13 13:31:31;;;;;;;6.03;1.87;;;;;;;;;;5124570;28;20252;-59
2024/02/13 13:33:57;;;;;;;6.72;1.95;;;;;;;;;;5116366;28;20276;-57
2024/02/13 13:36:25;;;;;;;4.17;1.90;;;;;;;;;;5115720;28;20061;-58
2024/02/13 13:38:54;;;;;;;6.67;2.07;;;;;;;;;;5121897;28;20260;-57
2024/02/13 13:41:19;;;;;;;8.20;1.90;;;;;;;;;;5122454;28;20248;-56
2024/02/13 13:43:47;;;;;;;4.88;1.80;;;;;;;;;;5109061;28;20300;-60
2024/02/13 13:46:13;;;;;;;7.20;2.10;;;;;;;;;;5109406;28;20112;-59
2024/02/13 13:48:39;;;;;;;10.70;2.63;;;;;;;;;;5110370;28;20264;-59
2024/02/13 13:51:07;;;;;;;3.23;1.77;;;;;;;;;;5119806;28;20283;-59
2024/02/13 13:53:36;;;;;;;3.87;1.50;;;;;;;;;;5116058;28;20272;-58
2024/02/13 13:56:07;;;;;;;3.13;1.83;;;;;;;;;;5115196;28;20257;-58
2024/02/13 13:58:33;;;;;;;8.07;2.10;;;;;;;;;;5116879;28;20324;-59
2024/02/13 14:01:00;;;;;;;2.42;1.52;;;;;;;;;;5106205;28;20028;-58
2024/02/13 14:03:25;;;;;;;7.03;2.07;;;;;;;;;;5114749;28;20032;-60
2024/02/13 14:05:51;;;;;;;6.57;1.40;;;;;;;;;;5115274;28;20275;-59
2024/02/13 14:08:16;;;;;;;8.40;1.70;;;;;;;;;;5114760;28;20084;-59
2024/02/13 14:10:42;;;;;;;7.05;2.10;;;;;;;;;;5114503;28;20032;-58
2024/02/13 14:13:10;;;;;;;7.40;2.17;;;;;;;;;;5114985;28;20047;-58
2024/02/13 14:15:37;;;;;;;13.83;3.30;;;;;;;;;;5116228;28;20264;-58
2024/02/13 14:18:09;;;;;;;7.57;2.07;;;;;;;;;;5121009;28;20305;-58
2024/02/13 14:20:37;;;;;;;6.67;1.77;;;;;;;;;;5117845;28;20257;-59
2024/02/13 14:23:05;;;;;;;6.47;1.73;;;;;;;;;;5108876;28;20272;-57
2024/02/13 14:25:31;;;;;;;5.17;1.97;;;;;;;;;;5112918;28;20300;-63
2024/02/13 14:27:57;;;;;;;10.57;2.27;;;;;;;;;;5114855;28;20272;-59